Aviation Digital Data Service (ADDS)

Output produced by METARs form (1903 UTC 19 April 2019)
found at http://www.aviationweather.gov/metar/data/
 
METAR text: LFBZ 191830Z AUTO 32005KT CAVOK 17/10 Q1022 TEMPO 0500 FG VV///
Conditions at: LFBZ (BIARRITZ/ANGLET , FR) observed 1830 UTC 19 April 2019
Temperature: 17.0°C (63°F)
Dewpoint: 10.0°C (50°F) [RH = 63%]
Pressure (altimeter): 30.18 inches Hg (1022.0 mb)
Winds: from the NW (320 degrees) at 6 MPH (5 knots; 2.6 m/s)
Visibility: 6 or more miles (10+ km)
Ceiling: ceiling and visibility are OK
Clouds: unknown
Weather: no significant weather observed at this time

METAR text: LFBZ 191800Z AUTO 33004KT CAVOK 18/10 Q1021 BECMG BKN002
Conditions at: LFBZ (BIARRITZ/ANGLET , FR) observed 1800 UTC 19 April 2019
Temperature: 18.0°C (64°F)
Dewpoint: 10.0°C (50°F) [RH = 59%]
Pressure (altimeter): 30.15 inches Hg (1021.0 mb)
Winds: from the NNW (330 degrees) at 5 MPH (4 knots; 2.1 m/s)
Visibility: 6 or more miles (10+ km)
Ceiling: ceiling and visibility are OK
Clouds: unknown
Weather: no significant weather observed at this time

METAR text: LFBZ 191730Z AUTO 31003KT 270V350 9999 FEW042 SCT190 19/11 Q1021 BECMG BKN002
Conditions at: LFBZ (BIARRITZ/ANGLET , FR) observed 1730 UTC 19 April 2019
Temperature: 19.0°C (66°F)
Dewpoint: 11.0°C (52°F) [RH = 60%]
Pressure (altimeter): 30.15 inches Hg (1021.0 mb)
Winds: from the NW (310 degrees) at 3 MPH (3 knots; 1.5 m/s)
Visibility: 6 or more miles (10+ km)
Ceiling: at least 12,000 feet AGL
Clouds: few clouds at 4200 feet AGL
scattered clouds at 19000 feet AGL
Weather: no significant weather observed at this time

METAR text: LFBZ 191700Z AUTO 34003KT 290V010 9999 FEW043 SCT160 19/11 Q1021 NOSIG
Conditions at: LFBZ (BIARRITZ/ANGLET , FR) observed 1700 UTC 19 April 2019
Temperature: 19.0°C (66°F)
Dewpoint: 11.0°C (52°F) [RH = 60%]
Pressure (altimeter): 30.15 inches Hg (1021.0 mb)
Winds: from the NNW (340 degrees) at 3 MPH (3 knots; 1.5 m/s)
Visibility: 6 or more miles (10+ km)
Ceiling: at least 12,000 feet AGL
Clouds: few clouds at 4300 feet AGL
scattered clouds at 16000 feet AGL
Weather: no significant weather observed at this time

METAR text: LFBZ 191630Z AUTO 32005KT 280V350 9999 FEW044 SCT190 19/11 Q1021 NOSIG
Conditions at: LFBZ (BIARRITZ/ANGLET , FR) observed 1630 UTC 19 April 2019
Temperature: 19.0°C (66°F)
Dewpoint: 11.0°C (52°F) [RH = 60%]
Pressure (altimeter): 30.15 inches Hg (1021.0 mb)
Winds: from the NW (320 degrees) at 6 MPH (5 knots; 2.6 m/s)
Visibility: 6 or more miles (10+ km)
Ceiling: at least 12,000 feet AGL
Clouds: few clouds at 4400 feet AGL
scattered clouds at 19000 feet AGL
Weather: no significant weather observed at this time

METAR text: LFBZ 191600Z AUTO 34005KT CAVOK 19/11 Q1021 NOSIG
Conditions at: LFBZ (BIARRITZ/ANGLET , FR) observed 1600 UTC 19 April 2019
Temperature: 19.0°C (66°F)
Dewpoint: 11.0°C (52°F) [RH = 60%]
Pressure (altimeter): 30.15 inches Hg (1021.0 mb)
Winds: from the NNW (340 degrees) at 6 MPH (5 knots; 2.6 m/s)
Visibility: 6 or more miles (10+ km)
Ceiling: ceiling and visibility are OK
Clouds: unknown
Weather: no significant weather observed at this time

METAR text: LFBZ 191530Z AUTO 31005KT CAVOK 18/11 Q1021 NOSIG
Conditions at: LFBZ (BIARRITZ/ANGLET , FR) observed 1530 UTC 19 April 2019
Temperature: 18.0°C (64°F)
Dewpoint: 11.0°C (52°F) [RH = 64%]
Pressure (altimeter): 30.15 inches Hg (1021.0 mb)
Winds: from the NW (310 degrees) at 6 MPH (5 knots; 2.6 m/s)
Visibility: 6 or more miles (10+ km)
Ceiling: ceiling and visibility are OK
Clouds: unknown
Weather: no significant weather observed at this time

METAR text: LFBZ 191500Z AUTO 33005KT CAVOK 19/12 Q1021 NOSIG
Conditions at: LFBZ (BIARRITZ/ANGLET , FR) observed 1500 UTC 19 April 2019
Temperature: 19.0°C (66°F)
Dewpoint: 12.0°C (54°F) [RH = 64%]
Pressure (altimeter): 30.15 inches Hg (1021.0 mb)
Winds: from the NNW (330 degrees) at 6 MPH (5 knots; 2.6 m/s)
Visibility: 6 or more miles (10+ km)
Ceiling: ceiling and visibility are OK
Clouds: unknown
Weather: no significant weather observed at this time

METAR text: LFBZ 191430Z AUTO 33003KT 280V010 CAVOK 19/12 Q1021 NOSIG
Conditions at: LFBZ (BIARRITZ/ANGLET , FR) observed 1430 UTC 19 April 2019
Temperature: 19.0°C (66°F)
Dewpoint: 12.0°C (54°F) [RH = 64%]
Pressure (altimeter): 30.15 inches Hg (1021.0 mb)
Winds: from the NNW (330 degrees) at 3 MPH (3 knots; 1.5 m/s)
Visibility: 6 or more miles (10+ km)
Ceiling: ceiling and visibility are OK
Clouds: unknown
Weather: no significant weather observed at this time

METAR text: LFBZ 191400Z AUTO 34005KT 290V020 CAVOK 19/12 Q1021 NOSIG
Conditions at: LFBZ (BIARRITZ/ANGLET , FR) observed 1400 UTC 19 April 2019
Temperature: 19.0°C (66°F)
Dewpoint: 12.0°C (54°F) [RH = 64%]
Pressure (altimeter): 30.15 inches Hg (1021.0 mb)
Winds: from the NNW (340 degrees) at 6 MPH (5 knots; 2.6 m/s)
Visibility: 6 or more miles (10+ km)
Ceiling: ceiling and visibility are OK
Clouds: unknown
Weather: no significant weather observed at this time

METAR text: LFBZ 191330Z AUTO 34004KT 310V030 CAVOK 19/12 Q1021 NOSIG
Conditions at: LFBZ (BIARRITZ/ANGLET , FR) observed 1330 UTC 19 April 2019
Temperature: 19.0°C (66°F)
Dewpoint: 12.0°C (54°F) [RH = 64%]
Pressure (altimeter): 30.15 inches Hg (1021.0 mb)
Winds: from the NNW (340 degrees) at 5 MPH (4 knots; 2.1 m/s)
Visibility: 6 or more miles (10+ km)
Ceiling: ceiling and visibility are OK
Clouds: unknown
Weather: no significant weather observed at this time

METAR text: LFBZ 191300Z AUTO 36004KT 310V040 CAVOK 19/12 Q1021 NOSIG
Conditions at: LFBZ (BIARRITZ/ANGLET , FR) observed 1300 UTC 19 April 2019
Temperature: 19.0°C (66°F)
Dewpoint: 12.0°C (54°F) [RH = 64%]
Pressure (altimeter): 30.15 inches Hg (1021.0 mb)
Winds: from the N (360 degrees) at 5 MPH (4 knots; 2.1 m/s)
Visibility: 6 or more miles (10+ km)
Ceiling: ceiling and visibility are OK
Clouds: unknown
Weather: no significant weather observed at this time

METAR text: LFBZ 191230Z AUTO 34004KT 260V030 CAVOK 18/12 Q1021 NOSIG
Conditions at: LFBZ (BIARRITZ/ANGLET , FR) observed 1230 UTC 19 April 2019
Temperature: 18.0°C (64°F)
Dewpoint: 12.0°C (54°F) [RH = 68%]
Pressure (altimeter): 30.15 inches Hg (1021.0 mb)
Winds: from the NNW (340 degrees) at 5 MPH (4 knots; 2.1 m/s)
Visibility: 6 or more miles (10+ km)
Ceiling: ceiling and visibility are OK
Clouds: unknown
Weather: no significant weather observed at this time

METAR text: LFBZ 191200Z AUTO 33004KT 290V020 CAVOK 18/12 Q1021 NOSIG
Conditions at: LFBZ (BIARRITZ/ANGLET , FR) observed 1200 UTC 19 April 2019
Temperature: 18.0°C (64°F)
Dewpoint: 12.0°C (54°F) [RH = 68%]
Pressure (altimeter): 30.15 inches Hg (1021.0 mb)
Winds: from the NNW (330 degrees) at 5 MPH (4 knots; 2.1 m/s)
Visibility: 6 or more miles (10+ km)
Ceiling: ceiling and visibility are OK
Clouds: unknown
Weather: no significant weather observed at this time

METAR text: LFBZ 191130Z AUTO 33005KT 300V010 CAVOK 18/11 Q1021 NOSIG
Conditions at: LFBZ (BIARRITZ/ANGLET , FR) observed 1130 UTC 19 April 2019
Temperature: 18.0°C (64°F)
Dewpoint: 11.0°C (52°F) [RH = 64%]
Pressure (altimeter): 30.15 inches Hg (1021.0 mb)
Winds: from the NNW (330 degrees) at 6 MPH (5 knots; 2.6 m/s)
Visibility: 6 or more miles (10+ km)
Ceiling: ceiling and visibility are OK
Clouds: unknown
Weather: no significant weather observed at this time

METAR text: LFBZ 191100Z AUTO 34005KT 310V020 CAVOK 17/12 Q1021 NOSIG
Conditions at: LFBZ (BIARRITZ/ANGLET , FR) observed 1100 UTC 19 April 2019
Temperature: 17.0°C (63°F)
Dewpoint: 12.0°C (54°F) [RH = 72%]
Pressure (altimeter): 30.15 inches Hg (1021.0 mb)
Winds: from the NNW (340 degrees) at 6 MPH (5 knots; 2.6 m/s)
Visibility: 6 or more miles (10+ km)
Ceiling: ceiling and visibility are OK
Clouds: unknown
Weather: no significant weather observed at this time

METAR text: LFBZ 191030Z AUTO 29003KT 250V340 CAVOK 17/12 Q1021 NOSIG
Conditions at: LFBZ (BIARRITZ/ANGLET , FR) observed 1030 UTC 19 April 2019
Temperature: 17.0°C (63°F)
Dewpoint: 12.0°C (54°F) [RH = 72%]
Pressure (altimeter): 30.15 inches Hg (1021.0 mb)
Winds: from the WNW (290 degrees) at 3 MPH (3 knots; 1.5 m/s)
Visibility: 6 or more miles (10+ km)
Ceiling: ceiling and visibility are OK
Clouds: unknown
Weather: no significant weather observed at this time

METAR text: LFBZ 191000Z AUTO 30004KT 270V340 CAVOK 16/13 Q1020 NOSIG
Conditions at: LFBZ (BIARRITZ/ANGLET , FR) observed 1000 UTC 19 April 2019
Temperature: 16.0°C (61°F)
Dewpoint: 13.0°C (55°F) [RH = 82%]
Pressure (altimeter): 30.12 inches Hg (1020.0 mb)
Winds: from the WNW (300 degrees) at 5 MPH (4 knots; 2.1 m/s)
Visibility: 6 or more miles (10+ km)
Ceiling: ceiling and visibility are OK
Clouds: unknown
Weather: no significant weather observed at this time

METAR text: LFBZ 190930Z AUTO 28003KT 230V320 CAVOK 15/13 Q1020 NOSIG
Conditions at: LFBZ (BIARRITZ/ANGLET , FR) observed 0930 UTC 19 April 2019
Temperature: 15.0°C (59°F)
Dewpoint: 13.0°C (55°F) [RH = 88%]
Pressure (altimeter): 30.12 inches Hg (1020.0 mb)
Winds: from the W (280 degrees) at 3 MPH (3 knots; 1.5 m/s)
Visibility: 6 or more miles (10+ km)
Ceiling: ceiling and visibility are OK
Clouds: unknown
Weather: no significant weather observed at this time

METAR text: LFBZ 190900Z AUTO 26003KT 220V310 CAVOK 15/12 Q1020 NOSIG
Conditions at: LFBZ (BIARRITZ/ANGLET , FR) observed 0900 UTC 19 April 2019
Temperature: 15.0°C (59°F)
Dewpoint: 12.0°C (54°F) [RH = 82%]
Pressure (altimeter): 30.12 inches Hg (1020.0 mb)
Winds: from the W (260 degrees) at 3 MPH (3 knots; 1.5 m/s)
Visibility: 6 or more miles (10+ km)
Ceiling: ceiling and visibility are OK
Clouds: unknown
Weather: no significant weather observed at this time

METAR text: LFBZ 190830Z AUTO VRB02KT CAVOK 14/12 Q1020 NOSIG
Conditions at: LFBZ (BIARRITZ/ANGLET , FR) observed 0830 UTC 19 April 2019
Temperature: 14.0°C (57°F)
Dewpoint: 12.0°C (54°F) [RH = 88%]
Pressure (altimeter): 30.12 inches Hg (1020.0 mb)
Winds: variable direction winds at 2 MPH (2 knots; 1.0 m/s)
Visibility: 6 or more miles (10+ km)
Ceiling: ceiling and visibility are OK
Clouds: unknown
Weather: no significant weather observed at this time

METAR text: LFBZ 190800Z AUTO VRB02KT CAVOK 13/12 Q1019 NOSIG
Conditions at: LFBZ (BIARRITZ/ANGLET , FR) observed 0800 UTC 19 April 2019
Temperature: 13.0°C (55°F)
Dewpoint: 12.0°C (54°F) [RH = 94%]
Pressure (altimeter): 30.09 inches Hg (1019.0 mb)
Winds: variable direction winds at 2 MPH (2 knots; 1.0 m/s)
Visibility: 6 or more miles (10+ km)
Ceiling: ceiling and visibility are OK
Clouds: unknown
Weather: no significant weather observed at this time

METAR text: LFBZ 190730Z AUTO VRB03KT CAVOK 13/12 Q1019 NOSIG
Conditions at: LFBZ (BIARRITZ/ANGLET , FR) observed 0730 UTC 19 April 2019
Temperature: 13.0°C (55°F)
Dewpoint: 12.0°C (54°F) [RH = 94%]
Pressure (altimeter): 30.09 inches Hg (1019.0 mb)
Winds: variable direction winds at 3 MPH (3 knots; 1.5 m/s)
Visibility: 6 or more miles (10+ km)
Ceiling: ceiling and visibility are OK
Clouds: unknown
Weather: no significant weather observed at this time

METAR text: LFBZ 190700Z AUTO VRB02KT CAVOK 12/12 Q1019 NOSIG
Conditions at: LFBZ (BIARRITZ/ANGLET , FR) observed 0700 UTC 19 April 2019
Temperature: 12.0°C (54°F)
Dewpoint: 12.0°C (54°F) [RH = 100%]
Pressure (altimeter): 30.09 inches Hg (1019.0 mb)
Winds: variable direction winds at 2 MPH (2 knots; 1.0 m/s)
Visibility: 6 or more miles (10+ km)
Ceiling: ceiling and visibility are OK
Clouds: unknown
Weather: no significant weather observed at this time

METAR text: LFBZ 190630Z AUTO VRB02KT CAVOK 12/12 Q1019 NOSIG
Conditions at: LFBZ (BIARRITZ/ANGLET , FR) observed 0630 UTC 19 April 2019
Temperature: 12.0°C (54°F)
Dewpoint: 12.0°C (54°F) [RH = 100%]
Pressure (altimeter): 30.09 inches Hg (1019.0 mb)
Winds: variable direction winds at 2 MPH (2 knots; 1.0 m/s)
Visibility: 6 or more miles (10+ km)
Ceiling: ceiling and visibility are OK
Clouds: unknown
Weather: no significant weather observed at this time

METAR text: LFBZ 190600Z AUTO VRB02KT CAVOK 12/12 Q1018 TEMPO BKN005
Conditions at: LFBZ (BIARRITZ/ANGLET , FR) observed 0600 UTC 19 April 2019
Temperature: 12.0°C (54°F)
Dewpoint: 12.0°C (54°F) [RH = 100%]
Pressure (altimeter): 30.06 inches Hg (1018.0 mb)
Winds: variable direction winds at 2 MPH (2 knots; 1.0 m/s)
Visibility: 6 or more miles (10+ km)
Ceiling: ceiling and visibility are OK
Clouds: unknown
Weather: no significant weather observed at this time

METAR text: LFBZ 190530Z AUTO VRB02KT 9999 FEW008 BKN140 OVC190 13/12 Q1018 NOSIG
Conditions at: LFBZ (BIARRITZ/ANGLET , FR) observed 0530 UTC 19 April 2019
Temperature: 13.0°C (55°F)
Dewpoint: 12.0°C (54°F) [RH = 94%]
Pressure (altimeter): 30.06 inches Hg (1018.0 mb)
Winds: variable direction winds at 2 MPH (2 knots; 1.0 m/s)
Visibility: 6 or more miles (10+ km)
Ceiling: 14000 feet AGL
Clouds: few clouds at 800 feet AGL
broken clouds at 14000 feet AGL
overcast cloud deck at 19000 feet AGL
Weather: no significant weather observed at this time

METAR text: LFBZ 190500Z AUTO VRB02KT 9999 BKN008 BKN130 OVC200 13/12 Q1018 TEMPO SCT030TCU
Conditions at: LFBZ (BIARRITZ/ANGLET , FR) observed 0500 UTC 19 April 2019
Temperature: 13.0°C (55°F)
Dewpoint: 12.0°C (54°F) [RH = 94%]
Pressure (altimeter): 30.06 inches Hg (1018.0 mb)
Winds: variable direction winds at 2 MPH (2 knots; 1.0 m/s)
Visibility: 6 or more miles (10+ km)
Ceiling: 800 feet AGL
Clouds: broken clouds at 800 feet AGL
broken clouds at 13000 feet AGL
overcast cloud deck at 20000 feet AGL
Weather: no significant weather observed at this time

METAR text: LFBZ 190430Z AUTO VRB02KT 9999 OVC009 13/12 Q1018 TEMPO SCT030TCU
Conditions at: LFBZ (BIARRITZ/ANGLET , FR) observed 0430 UTC 19 April 2019
Temperature: 13.0°C (55°F)
Dewpoint: 12.0°C (54°F) [RH = 94%]
Pressure (altimeter): 30.06 inches Hg (1018.0 mb)
Winds: variable direction winds at 2 MPH (2 knots; 1.0 m/s)
Visibility: 6 or more miles (10+ km)
Ceiling: 900 feet AGL
Clouds: overcast cloud deck at 900 feet AGL
Weather: no significant weather observed at this time

METAR text: LFBZ 190400Z AUTO VRB02KT 9999 OVC007 13/12 Q1017 TEMPO SCT030TCU
Conditions at: LFBZ (BIARRITZ/ANGLET , FR) observed 0400 UTC 19 April 2019
Temperature: 13.0°C (55°F)
Dewpoint: 12.0°C (54°F) [RH = 94%]
Pressure (altimeter): 30.03 inches Hg (1017.0 mb)
Winds: variable direction winds at 2 MPH (2 knots; 1.0 m/s)
Visibility: 6 or more miles (10+ km)
Ceiling: 700 feet AGL
Clouds: overcast cloud deck at 700 feet AGL
Weather: no significant weather observed at this time

METAR text: LFBZ 190330Z AUTO VRB03KT 9999 BKN006 OVC130 13/13 Q1017 TEMPO SCT030TCU
Conditions at: LFBZ (BIARRITZ/ANGLET , FR) observed 0330 UTC 19 April 2019
Temperature: 13.0°C (55°F)
Dewpoint: 13.0°C (55°F) [RH = 100%]
Pressure (altimeter): 30.03 inches Hg (1017.0 mb)
Winds: variable direction winds at 3 MPH (3 knots; 1.5 m/s)
Visibility: 6 or more miles (10+ km)
Ceiling: 600 feet AGL
Clouds: broken clouds at 600 feet AGL
overcast cloud deck at 13000 feet AGL
Weather: no significant weather observed at this time

METAR text: LFBZ 190300Z AUTO 26003KT 210V310 9999 BKN006 OVC130 13/13 Q1017 TEMPO SCT030TCU
Conditions at: LFBZ (BIARRITZ/ANGLET , FR) observed 0300 UTC 19 April 2019
Temperature: 13.0°C (55°F)
Dewpoint: 13.0°C (55°F) [RH = 100%]
Pressure (altimeter): 30.03 inches Hg (1017.0 mb)
Winds: from the W (260 degrees) at 3 MPH (3 knots; 1.5 m/s)
Visibility: 6 or more miles (10+ km)
Ceiling: 600 feet AGL
Clouds: broken clouds at 600 feet AGL
overcast cloud deck at 13000 feet AGL
Weather: no significant weather observed at this time

METAR text: LFBZ 190230Z AUTO 23003KT 200V270 9000 BKN004 OVC130 13/13 Q1017 TEMPO SCT030TCU
Conditions at: LFBZ (BIARRITZ/ANGLET , FR) observed 0230 UTC 19 April 2019
Temperature: 13.0°C (55°F)
Dewpoint: 13.0°C (55°F) [RH = 100%]
Pressure (altimeter): 30.03 inches Hg (1017.0 mb)
Winds: from the SW (230 degrees) at 3 MPH (3 knots; 1.5 m/s)
Visibility: 6 miles ( 9 km)
Ceiling: 400 feet AGL
Clouds: broken clouds at 400 feet AGL
overcast cloud deck at 13000 feet AGL
Weather: no significant weather observed at this time

METAR text: LFBZ 190200Z AUTO VRB02KT 9999 BKN004 OVC130 13/13 Q1016 TEMPO SCT030TCU
Conditions at: LFBZ (BIARRITZ/ANGLET , FR) observed 0200 UTC 19 April 2019
Temperature: 13.0°C (55°F)
Dewpoint: 13.0°C (55°F) [RH = 100%]
Pressure (altimeter): 30.00 inches Hg (1016.0 mb)
Winds: variable direction winds at 2 MPH (2 knots; 1.0 m/s)
Visibility: 6 or more miles (10+ km)
Ceiling: 400 feet AGL
Clouds: broken clouds at 400 feet AGL
overcast cloud deck at 13000 feet AGL
Weather: no significant weather observed at this time

METAR text: LFBZ 190130Z AUTO 30004KT 9999 BKN004 OVC130 13/13 Q1016 TEMPO SCT030TCU
Conditions at: LFBZ (BIARRITZ/ANGLET , FR) observed 0130 UTC 19 April 2019
Temperature: 13.0°C (55°F)
Dewpoint: 13.0°C (55°F) [RH = 100%]
Pressure (altimeter): 30.00 inches Hg (1016.0 mb)
Winds: from the WNW (300 degrees) at 5 MPH (4 knots; 2.1 m/s)
Visibility: 6 or more miles (10+ km)
Ceiling: 400 feet AGL
Clouds: broken clouds at 400 feet AGL
overcast cloud deck at 13000 feet AGL
Weather: no significant weather observed at this time

METAR text: LFBZ 190100Z AUTO 29005KT 260V320 9999 BKN004 OVC130 13/13 Q1017 TEMPO BKN005
Conditions at: LFBZ (BIARRITZ/ANGLET , FR) observed 0100 UTC 19 April 2019
Temperature: 13.0°C (55°F)
Dewpoint: 13.0°C (55°F) [RH = 100%]
Pressure (altimeter): 30.03 inches Hg (1017.0 mb)
Winds: from the WNW (290 degrees) at 6 MPH (5 knots; 2.6 m/s)
Visibility: 6 or more miles (10+ km)
Ceiling: 400 feet AGL
Clouds: broken clouds at 400 feet AGL
overcast cloud deck at 13000 feet AGL
Weather: no significant weather observed at this time

METAR text: LFBZ 190030Z AUTO VRB03KT 9999 SCT005 OVC130 13/13 Q1017 TEMPO BKN005
Conditions at: LFBZ (BIARRITZ/ANGLET , FR) observed 0030 UTC 19 April 2019
Temperature: 13.0°C (55°F)
Dewpoint: 13.0°C (55°F) [RH = 100%]
Pressure (altimeter): 30.03 inches Hg (1017.0 mb)
Winds: variable direction winds at 3 MPH (3 knots; 1.5 m/s)
Visibility: 6 or more miles (10+ km)
Ceiling: 13000 feet AGL
Clouds: scattered clouds at 500 feet AGL
overcast cloud deck at 13000 feet AGL
Weather: no significant weather observed at this time

METAR text: LFBZ 190000Z AUTO 25004KT 210V280 CAVOK 13/13 Q1016 TEMPO BKN005
Conditions at: LFBZ (BIARRITZ/ANGLET , FR) observed 0000 UTC 19 April 2019
Temperature: 13.0°C (55°F)
Dewpoint: 13.0°C (55°F) [RH = 100%]
Pressure (altimeter): 30.00 inches Hg (1016.0 mb)
Winds: from the WSW (250 degrees) at 5 MPH (4 knots; 2.1 m/s)
Visibility: 6 or more miles (10+ km)
Ceiling: ceiling and visibility are OK
Clouds: unknown
Weather: no significant weather observed at this time

METAR text: LFBZ 182330Z AUTO 24004KT 200V290 CAVOK 14/12 Q1017 TEMPO BKN005
Conditions at: LFBZ (BIARRITZ/ANGLET , FR) observed 2330 UTC 18 April 2019
Temperature: 14.0°C (57°F)
Dewpoint: 12.0°C (54°F) [RH = 88%]
Pressure (altimeter): 30.03 inches Hg (1017.0 mb)
Winds: from the WSW (240 degrees) at 5 MPH (4 knots; 2.1 m/s)
Visibility: 6 or more miles (10+ km)
Ceiling: ceiling and visibility are OK
Clouds: unknown
Weather: no significant weather observed at this time

METAR text: LFBZ 182300Z AUTO 27007KT 9999 FEW042 OVC130 14/12 Q1017 TEMPO BKN005
Conditions at: LFBZ (BIARRITZ/ANGLET , FR) observed 2300 UTC 18 April 2019
Temperature: 14.0°C (57°F)
Dewpoint: 12.0°C (54°F) [RH = 88%]
Pressure (altimeter): 30.03 inches Hg (1017.0 mb)
Winds: from the W (270 degrees) at 8 MPH (7 knots; 3.6 m/s)
Visibility: 6 or more miles (10+ km)
Ceiling: 13000 feet AGL
Clouds: few clouds at 4200 feet AGL
overcast cloud deck at 13000 feet AGL
Weather: no significant weather observed at this time

METAR text: LFBZ 182230Z AUTO 27006KT 230V290 9999 BKN043 OVC130 14/12 Q1017 TEMPO BKN005
Conditions at: LFBZ (BIARRITZ/ANGLET , FR) observed 2230 UTC 18 April 2019
Temperature: 14.0°C (57°F)
Dewpoint: 12.0°C (54°F) [RH = 88%]
Pressure (altimeter): 30.03 inches Hg (1017.0 mb)
Winds: from the W (270 degrees) at 7 MPH (6 knots; 3.1 m/s)
Visibility: 6 or more miles (10+ km)
Ceiling: 4300 feet AGL
Clouds: broken clouds at 4300 feet AGL
overcast cloud deck at 13000 feet AGL
Weather: no significant weather observed at this time

METAR text: LFBZ 182200Z AUTO 25006KT 200V280 9999 BKN042 OVC120 14/12 Q1017 TEMPO BKN005
Conditions at: LFBZ (BIARRITZ/ANGLET , FR) observed 2200 UTC 18 April 2019
Temperature: 14.0°C (57°F)
Dewpoint: 12.0°C (54°F) [RH = 88%]
Pressure (altimeter): 30.03 inches Hg (1017.0 mb)
Winds: from the WSW (250 degrees) at 7 MPH (6 knots; 3.1 m/s)
Visibility: 6 or more miles (10+ km)
Ceiling: 4200 feet AGL
Clouds: broken clouds at 4200 feet AGL
overcast cloud deck at 12000 feet AGL
Weather: no significant weather observed at this time

METAR text: LFBZ 182130Z AUTO 29008KT 9999 OVC042 14/11 Q1016 TEMPO BKN005
Conditions at: LFBZ (BIARRITZ/ANGLET , FR) observed 2130 UTC 18 April 2019
Temperature: 14.0°C (57°F)
Dewpoint: 11.0°C (52°F) [RH = 82%]
Pressure (altimeter): 30.00 inches Hg (1016.0 mb)
Winds: from the WNW (290 degrees) at 9 MPH (8 knots; 4.1 m/s)
Visibility: 6 or more miles (10+ km)
Ceiling: 4200 feet AGL
Clouds: overcast cloud deck at 4200 feet AGL
Weather: no significant weather observed at this time

METAR text: LFBZ 182100Z AUTO 26005KT 9999 OVC038 14/12 Q1016 TEMPO BKN005
Conditions at: LFBZ (BIARRITZ/ANGLET , FR) observed 2100 UTC 18 April 2019
Temperature: 14.0°C (57°F)
Dewpoint: 12.0°C (54°F) [RH = 88%]
Pressure (altimeter): 30.00 inches Hg (1016.0 mb)
Winds: from the W (260 degrees) at 6 MPH (5 knots; 2.6 m/s)
Visibility: 6 or more miles (10+ km)
Ceiling: 3800 feet AGL
Clouds: overcast cloud deck at 3800 feet AGL
Weather: no significant weather observed at this time

METAR text: LFBZ 182030Z AUTO 23004KT 190V260 9999 BKN038 BKN044 14/12 Q1016 TEMPO BKN005
Conditions at: LFBZ (BIARRITZ/ANGLET , FR) observed 2030 UTC 18 April 2019
Temperature: 14.0°C (57°F)
Dewpoint: 12.0°C (54°F) [RH = 88%]
Pressure (altimeter): 30.00 inches Hg (1016.0 mb)
Winds: from the SW (230 degrees) at 5 MPH (4 knots; 2.1 m/s)
Visibility: 6 or more miles (10+ km)
Ceiling: 3800 feet AGL
Clouds: broken clouds at 3800 feet AGL
broken clouds at 4400 feet AGL
Weather: no significant weather observed at this time

METAR text: LFBZ 182000Z AUTO 35005KT 9999 BKN039 14/11 Q1015 TEMPO BKN005
Conditions at: LFBZ (BIARRITZ/ANGLET , FR) observed 2000 UTC 18 April 2019
Temperature: 14.0°C (57°F)
Dewpoint: 11.0°C (52°F) [RH = 82%]
Pressure (altimeter): 29.97 inches Hg (1015.0 mb)
Winds: from the N (350 degrees) at 6 MPH (5 knots; 2.6 m/s)
Visibility: 6 or more miles (10+ km)
Ceiling: 3900 feet AGL
Clouds: broken clouds at 3900 feet AGL
Weather: no significant weather observed at this time

METAR text: LFBZ 181930Z AUTO VRB03KT 9999 FEW033 OVC041 15/11 Q1015 TEMPO BKN005
Conditions at: LFBZ (BIARRITZ/ANGLET , FR) observed 1930 UTC 18 April 2019
Temperature: 15.0°C (59°F)
Dewpoint: 11.0°C (52°F) [RH = 77%]
Pressure (altimeter): 29.97 inches Hg (1015.0 mb)
Winds: variable direction winds at 3 MPH (3 knots; 1.5 m/s)
Visibility: 6 or more miles (10+ km)
Ceiling: 4100 feet AGL
Clouds: few clouds at 3300 feet AGL
overcast cloud deck at 4100 feet AGL
Weather: no significant weather observed at this time

METAR text: LFBZ 181900Z AUTO VRB02KT 9999 OVC039 15/11 Q1015 TEMPO BKN005
Conditions at: LFBZ (BIARRITZ/ANGLET , FR) observed 1900 UTC 18 April 2019
Temperature: 15.0°C (59°F)
Dewpoint: 11.0°C (52°F) [RH = 77%]
Pressure (altimeter): 29.97 inches Hg (1015.0 mb)
Winds: variable direction winds at 2 MPH (2 knots; 1.0 m/s)
Visibility: 6 or more miles (10+ km)
Ceiling: 3900 feet AGL
Clouds: overcast cloud deck at 3900 feet AGL
Weather: no significant weather observed at this time

METAR text: LFBZ 181830Z AUTO 36005KT 330V030 9999 OVC041 15/11 Q1015 TEMPO BKN005
Conditions at: LFBZ (BIARRITZ/ANGLET , FR) observed 1830 UTC 18 April 2019
Temperature: 15.0°C (59°F)
Dewpoint: 11.0°C (52°F) [RH = 77%]
Pressure (altimeter): 29.97 inches Hg (1015.0 mb)
Winds: from the N (360 degrees) at 6 MPH (5 knots; 2.6 m/s)
Visibility: 6 or more miles (10+ km)
Ceiling: 4100 feet AGL
Clouds: overcast cloud deck at 4100 feet AGL
Weather: no significant weather observed at this time

METAR text: LFBZ 181800Z AUTO 34005KT 300V010 9999 BKN039 BKN098 15/11 Q1015 NOSIG
Conditions at: LFBZ (BIARRITZ/ANGLET , FR) observed 1800 UTC 18 April 2019
Temperature: 15.0°C (59°F)
Dewpoint: 11.0°C (52°F) [RH = 77%]
Pressure (altimeter): 29.97 inches Hg (1015.0 mb)
Winds: from the NNW (340 degrees) at 6 MPH (5 knots; 2.6 m/s)
Visibility: 6 or more miles (10+ km)
Ceiling: 3900 feet AGL
Clouds: broken clouds at 3900 feet AGL
broken clouds at 9800 feet AGL
Weather: no significant weather observed at this time

METAR text: LFBZ 181730Z AUTO 35008KT 9999 FEW034 SCT049 16/11 Q1014 NOSIG
Conditions at: LFBZ (BIARRITZ/ANGLET , FR) observed 1730 UTC 18 April 2019
Temperature: 16.0°C (61°F)
Dewpoint: 11.0°C (52°F) [RH = 72%]
Pressure (altimeter): 29.94 inches Hg (1014.0 mb)
Winds: from the N (350 degrees) at 9 MPH (8 knots; 4.1 m/s)
Visibility: 6 or more miles (10+ km)
Ceiling: at least 12,000 feet AGL
Clouds: few clouds at 3400 feet AGL
scattered clouds at 4900 feet AGL
Weather: no significant weather observed at this time

METAR text: LFBZ 181700Z AUTO 36007KT 9999 OVC034 16/11 Q1015 NOSIG
Conditions at: LFBZ (BIARRITZ/ANGLET , FR) observed 1700 UTC 18 April 2019
Temperature: 16.0°C (61°F)
Dewpoint: 11.0°C (52°F) [RH = 72%]
Pressure (altimeter): 29.97 inches Hg (1015.0 mb)
Winds: from the N (360 degrees) at 8 MPH (7 knots; 3.6 m/s)
Visibility: 6 or more miles (10+ km)
Ceiling: 3400 feet AGL
Clouds: overcast cloud deck at 3400 feet AGL
Weather: no significant weather observed at this time

METAR text: LFBZ 181630Z AUTO 35007KT 320V020 9999 OVC032 16/11 Q1015 NOSIG
Conditions at: LFBZ (BIARRITZ/ANGLET , FR) observed 1630 UTC 18 April 2019
Temperature: 16.0°C (61°F)
Dewpoint: 11.0°C (52°F) [RH = 72%]
Pressure (altimeter): 29.97 inches Hg (1015.0 mb)
Winds: from the N (350 degrees) at 8 MPH (7 knots; 3.6 m/s)
Visibility: 6 or more miles (10+ km)
Ceiling: 3200 feet AGL
Clouds: overcast cloud deck at 3200 feet AGL
Weather: no significant weather observed at this time

METAR text: LFBZ 181600Z AUTO 35007KT 9999 BKN032 OVC040 16/11 Q1015 NOSIG
Conditions at: LFBZ (BIARRITZ/ANGLET , FR) observed 1600 UTC 18 April 2019
Temperature: 16.0°C (61°F)
Dewpoint: 11.0°C (52°F) [RH = 72%]
Pressure (altimeter): 29.97 inches Hg (1015.0 mb)
Winds: from the N (350 degrees) at 8 MPH (7 knots; 3.6 m/s)
Visibility: 6 or more miles (10+ km)
Ceiling: 3200 feet AGL
Clouds: broken clouds at 3200 feet AGL
overcast cloud deck at 4000 feet AGL
Weather: no significant weather observed at this time

METAR text: LFBZ 181530Z AUTO 32007KT 9999 BKN033 OVC042 16/12 Q1015 NOSIG
Conditions at: LFBZ (BIARRITZ/ANGLET , FR) observed 1530 UTC 18 April 2019
Temperature: 16.0°C (61°F)
Dewpoint: 12.0°C (54°F) [RH = 77%]
Pressure (altimeter): 29.97 inches Hg (1015.0 mb)
Winds: from the NW (320 degrees) at 8 MPH (7 knots; 3.6 m/s)
Visibility: 6 or more miles (10+ km)
Ceiling: 3300 feet AGL
Clouds: broken clouds at 3300 feet AGL
overcast cloud deck at 4200 feet AGL
Weather: no significant weather observed at this time

METAR text: LFBZ 181500Z AUTO 31007KT 9999 BKN031 BKN037 BKN044 16/11 Q1015 NOSIG
Conditions at: LFBZ (BIARRITZ/ANGLET , FR) observed 1500 UTC 18 April 2019
Temperature: 16.0°C (61°F)
Dewpoint: 11.0°C (52°F) [RH = 72%]
Pressure (altimeter): 29.97 inches Hg (1015.0 mb)
Winds: from the NW (310 degrees) at 8 MPH (7 knots; 3.6 m/s)
Visibility: 6 or more miles (10+ km)
Ceiling: 3100 feet AGL
Clouds: broken clouds at 3100 feet AGL
broken clouds at 3700 feet AGL
broken clouds at 4400 feet AGL
Weather: no significant weather observed at this time

METAR text: LFBZ 181430Z AUTO 30005KT 270V330 9999 BKN030 BKN037 BKN047 16/12 Q1015 NOSIG
Conditions at: LFBZ (BIARRITZ/ANGLET , FR) observed 1430 UTC 18 April 2019
Temperature: 16.0°C (61°F)
Dewpoint: 12.0°C (54°F) [RH = 77%]
Pressure (altimeter): 29.97 inches Hg (1015.0 mb)
Winds: from the WNW (300 degrees) at 6 MPH (5 knots; 2.6 m/s)
Visibility: 6 or more miles (10+ km)
Ceiling: 3000 feet AGL
Clouds: broken clouds at 3000 feet AGL
broken clouds at 3700 feet AGL
broken clouds at 4700 feet AGL
Weather: no significant weather observed at this time

METAR text: LFBZ 181400Z AUTO 28006KT 9999 SCT021 BKN028 BKN037 16/13 Q1015 NOSIG
Conditions at: LFBZ (BIARRITZ/ANGLET , FR) observed 1400 UTC 18 April 2019
Temperature: 16.0°C (61°F)
Dewpoint: 13.0°C (55°F) [RH = 82%]
Pressure (altimeter): 29.97 inches Hg (1015.0 mb)
Winds: from the W (280 degrees) at 7 MPH (6 knots; 3.1 m/s)
Visibility: 6 or more miles (10+ km)
Ceiling: 2800 feet AGL
Clouds: scattered clouds at 2100 feet AGL
broken clouds at 2800 feet AGL
broken clouds at 3700 feet AGL
Weather: no significant weather observed at this time

METAR text: LFBZ 181330Z AUTO VRB02KT 9999 BKN021 BKN030 17/13 Q1015 NOSIG
Conditions at: LFBZ (BIARRITZ/ANGLET , FR) observed 1330 UTC 18 April 2019
Temperature: 17.0°C (63°F)
Dewpoint: 13.0°C (55°F) [RH = 77%]
Pressure (altimeter): 29.97 inches Hg (1015.0 mb)
Winds: variable direction winds at 2 MPH (2 knots; 1.0 m/s)
Visibility: 6 or more miles (10+ km)
Ceiling: 2100 feet AGL
Clouds: broken clouds at 2100 feet AGL
broken clouds at 3000 feet AGL
Weather: no significant weather observed at this time

METAR text: LFBZ 181300Z AUTO 06005KT 030V120 9999 FEW016 SCT028 18/14 Q1015 TEMPO SCT070TCU
Conditions at: LFBZ (BIARRITZ/ANGLET , FR) observed 1300 UTC 18 April 2019
Temperature: 18.0°C (64°F)
Dewpoint: 14.0°C (57°F) [RH = 77%]
Pressure (altimeter): 29.97 inches Hg (1015.0 mb)
Winds: from the ENE (60 degrees) at 6 MPH (5 knots; 2.6 m/s)
Visibility: 6 or more miles (10+ km)
Ceiling: at least 12,000 feet AGL
Clouds: few clouds at 1600 feet AGL
scattered clouds at 2800 feet AGL
Weather: no significant weather observed at this time

METAR text: LFBZ 181230Z AUTO 08005KT 050V110 9999 FEW031/// BKN100/// BKN220/// ///CB 17/14 Q1014 BECMG NSC
Conditions at: LFBZ (BIARRITZ/ANGLET , FR) observed 1230 UTC 18 April 2019
Temperature: 17.0°C (63°F)
Dewpoint: 14.0°C (57°F) [RH = 82%]
Pressure (altimeter): 29.94 inches Hg (1014.0 mb)
Winds: from the E (80 degrees) at 6 MPH (5 knots; 2.6 m/s)
Visibility: 6 or more miles (10+ km)
Ceiling: 10000 feet AGL
Clouds: few clouds at 3100 feet AGL
broken clouds at 10000 feet AGL
broken clouds at 22000 feet AGL
Weather: no significant weather observed at this time

METAR text: LFBZ 181200Z AUTO 06004KT 010V090 9999 -RA FEW032/// BKN068/// OVC088/// ///TCU 16/14 Q1014 NOSIG
Conditions at: LFBZ (BIARRITZ/ANGLET , FR) observed 1200 UTC 18 April 2019
Temperature: 16.0°C (61°F)
Dewpoint: 14.0°C (57°F) [RH = 88%]
Pressure (altimeter): 29.94 inches Hg (1014.0 mb)
Winds: from the ENE (60 degrees) at 5 MPH (4 knots; 2.1 m/s)
Visibility: 6 or more miles (10+ km)
Ceiling: 6800 feet AGL
Clouds: few clouds at 3200 feet AGL
broken clouds at 6800 feet AGL
overcast cloud deck at 8800 feet AGL
Weather: -RA  (light rain)

METAR text: LFBZ 181130Z AUTO 06004KT 040V100 9999 ///TCU 16/12 Q1015 NOSIG
Conditions at: LFBZ (BIARRITZ/ANGLET , FR) observed 1130 UTC 18 April 2019
Temperature: 16.0°C (61°F)
Dewpoint: 12.0°C (54°F) [RH = 77%]
Pressure (altimeter): 29.97 inches Hg (1015.0 mb)
Winds: from the ENE (60 degrees) at 5 MPH (4 knots; 2.1 m/s)
Visibility: 6 or more miles (10+ km)
Ceiling: unknown
Clouds: missing
Weather: no significant weather observed at this time

METAR text: LFBZ 181100Z AUTO VRB02KT CAVOK 17/11 Q1015 TEMPO FEW070CB
Conditions at: LFBZ (BIARRITZ/ANGLET , FR) observed 1100 UTC 18 April 2019
Temperature: 17.0°C (63°F)
Dewpoint: 11.0°C (52°F) [RH = 68%]
Pressure (altimeter): 29.97 inches Hg (1015.0 mb)
Winds: variable direction winds at 2 MPH (2 knots; 1.0 m/s)
Visibility: 6 or more miles (10+ km)
Ceiling: ceiling and visibility are OK
Clouds: unknown
Weather: no significant weather observed at this time

METAR text: LFBZ 181030Z AUTO VRB01KT CAVOK 17/11 Q1015 TEMPO FEW070CB
Conditions at: LFBZ (BIARRITZ/ANGLET , FR) observed 1030 UTC 18 April 2019
Temperature: 17.0°C (63°F)
Dewpoint: 11.0°C (52°F) [RH = 68%]
Pressure (altimeter): 29.97 inches Hg (1015.0 mb)
Winds: variable direction winds at 1 MPH (1 knots; 0.5 m/s)
Visibility: 6 or more miles (10+ km)
Ceiling: ceiling and visibility are OK
Clouds: unknown
Weather: no significant weather observed at this time

METAR text: LFBZ 181000Z AUTO VRB02KT CAVOK 16/11 Q1015 TEMPO FEW070CB
Conditions at: LFBZ (BIARRITZ/ANGLET , FR) observed 1000 UTC 18 April 2019
Temperature: 16.0°C (61°F)
Dewpoint: 11.0°C (52°F) [RH = 72%]
Pressure (altimeter): 29.97 inches Hg (1015.0 mb)
Winds: variable direction winds at 2 MPH (2 knots; 1.0 m/s)
Visibility: 6 or more miles (10+ km)
Ceiling: ceiling and visibility are OK
Clouds: unknown
Weather: no significant weather observed at this time

METAR text: LFBZ 180930Z AUTO VRB02KT CAVOK 16/12 Q1015 TEMPO FEW070CB
Conditions at: LFBZ (BIARRITZ/ANGLET , FR) observed 0930 UTC 18 April 2019
Temperature: 16.0°C (61°F)
Dewpoint: 12.0°C (54°F) [RH = 77%]
Pressure (altimeter): 29.97 inches Hg (1015.0 mb)
Winds: variable direction winds at 2 MPH (2 knots; 1.0 m/s)
Visibility: 6 or more miles (10+ km)
Ceiling: ceiling and visibility are OK
Clouds: unknown
Weather: no significant weather observed at this time

METAR text: LFBZ 180900Z AUTO 10003KT 070V150 CAVOK 15/12 Q1014 TEMPO FEW070CB
Conditions at: LFBZ (BIARRITZ/ANGLET , FR) observed 0900 UTC 18 April 2019
Temperature: 15.0°C (59°F)
Dewpoint: 12.0°C (54°F) [RH = 82%]
Pressure (altimeter): 29.94 inches Hg (1014.0 mb)
Winds: from the E (100 degrees) at 3 MPH (3 knots; 1.5 m/s)
Visibility: 6 or more miles (10+ km)
Ceiling: ceiling and visibility are OK
Clouds: unknown
Weather: no significant weather observed at this time

METAR text: LFBZ 180830Z AUTO 07005KT 040V100 CAVOK 14/12 Q1014 TEMPO FEW070CB
Conditions at: LFBZ (BIARRITZ/ANGLET , FR) observed 0830 UTC 18 April 2019
Temperature: 14.0°C (57°F)
Dewpoint: 12.0°C (54°F) [RH = 88%]
Pressure (altimeter): 29.94 inches Hg (1014.0 mb)
Winds: from the ENE (70 degrees) at 6 MPH (5 knots; 2.6 m/s)
Visibility: 6 or more miles (10+ km)
Ceiling: ceiling and visibility are OK
Clouds: unknown
Weather: no significant weather observed at this time

METAR text: LFBZ 180800Z AUTO 07005KT CAVOK 14/12 Q1014 NOSIG
Conditions at: LFBZ (BIARRITZ/ANGLET , FR) observed 0800 UTC 18 April 2019
Temperature: 14.0°C (57°F)
Dewpoint: 12.0°C (54°F) [RH = 88%]
Pressure (altimeter): 29.94 inches Hg (1014.0 mb)
Winds: from the ENE (70 degrees) at 6 MPH (5 knots; 2.6 m/s)
Visibility: 6 or more miles (10+ km)
Ceiling: ceiling and visibility are OK
Clouds: unknown
Weather: no significant weather observed at this time

METAR text: LFBZ 180730Z AUTO 09004KT 050V130 CAVOK 13/11 Q1013 NOSIG
Conditions at: LFBZ (BIARRITZ/ANGLET , FR) observed 0730 UTC 18 April 2019
Temperature: 13.0°C (55°F)
Dewpoint: 11.0°C (52°F) [RH = 88%]
Pressure (altimeter): 29.91 inches Hg (1013.0 mb)
Winds: from the E (90 degrees) at 5 MPH (4 knots; 2.1 m/s)
Visibility: 6 or more miles (10+ km)
Ceiling: ceiling and visibility are OK
Clouds: unknown
Weather: no significant weather observed at this time

Forecast for: LFBZ (BIARRITZ/ANGLET , FR)
Text: TAF LFBZ 191700Z 1918/2018 30005KT CAVOK
Forecast period: 1800 UTC 19 April 2019 to 1800 UTC 20 April 2019
Forecast type: FROM: standard forecast or significant change
Winds: from the WNW (300 degrees) at 6 MPH (5 knots; 2.6 m/s)
Visibility: 6 or more miles 10+ km)
Ceiling: unknown
Clouds: missing
Weather: NSW  (no significant weather)
Text: BECMG 1918/1920 BKN002
Forecast period: 1800 UTC 19 April 2019 to 0900 UTC 20 April 2019
Forecast type: BECOMING: Conditions expected to become as follows by 2000 UTC 19 April 2019
Winds: from the WNW (300 degrees) at 6 MPH (5 knots; 2.6 m/s)
Visibility: 6 or more miles 10+ km)
Ceiling: 200 feet AGL
Clouds: broken clouds at 200 feet AGL
Weather: NSW  (no significant weather)
Text: PROB40 1920/2007 0500 FG VV///
Forecast period: 2000 UTC 19 April 2019 to 0700 UTC 20 April 2019
Forecast type: PROBABLE: 40 percent likelihood of the following during this time
Visibility: 0.31 miles (0.50 km)
Ceiling: unknown
Clouds: missing
Weather: FG  (fog)
Text: TEMPO 2000/2010 VRB02KT
Forecast period: 0000 to 1000 UTC 20 April 2019
Forecast type: TEMPORARY: The following changes expected for less than half the time period
Winds: variable direction winds at 2 MPH (2 knots; 1.0 m/s)
Visibility: missing
Ceiling: unknown
Clouds: missing
Weather: no significant weather forecast for this period
Text: BECMG 2009/2011 CAVOK
Forecast period: 0900 to 1800 UTC 20 April 2019
Forecast type: BECOMING: Conditions expected to become as follows by 1100 UTC 20 April 2019
Winds: from the WNW (300 degrees) at 6 MPH (5 knots; 2.6 m/s)
Visibility: 6 or more miles 10+ km)
Ceiling: unknown
Clouds: missing
Weather: NSW  (no significant weather)
Text: PROB40
Forecast period: 1400 to 1600 UTC 20 April 2019
Forecast type: TEMPORARY: The following changes expected for less than half the time period
Visibility: missing
Ceiling: 5000 feet AGL
Clouds: broken clouds at 5000 feet AGL
Weather: no significant weather forecast for this period